sensor_id;sensor_type;location;lat;lon;timestamp;temperature;humidity
18229;DHT22;9239;50.932;3.142;2023-03-01T00:00:19;0.90;99.90
18229;DHT22;9239;50.932;3.142;2023-03-01T00:02:46;0.90;99.90
18229;DHT22;9239;50.932;3.142;2023-03-01T00:05:12;0.90;99.90
18229;DHT22;9239;50.932;3.142;2023-03-01T00:07:41;0.80;99.90
18229;DHT22;9239;50.932;3.142;2023-03-01T00:10:09;0.80;99.90
18229;DHT22;9239;50.932;3.142;2023-03-01T00:12:36;0.70;99.90
18229;DHT22;9239;50.932;3.142;2023-03-01T00:15:03;0.70;99.90
18229;DHT22;9239;50.932;3.142;2023-03-01T00:17:31;0.80;99.90
18229;DHT22;9239;50.932;3.142;2023-03-01T00:19:58;0.90;99.90
18229;DHT22;9239;50.932;3.142;2023-03-01T00:22:26;0.90;99.90
18229;DHT22;9239;50.932;3.142;2023-03-01T00:24:56;1.00;99.90
18229;DHT22;9239;50.932;3.142;2023-03-01T00:27:23;1.00;99.90
18229;DHT22;9239;50.932;3.142;2023-03-01T00:29:49;0.90;99.90
18229;DHT22;9239;50.932;3.142;2023-03-01T00:32:16;0.80;99.90
18229;DHT22;9239;50.932;3.142;2023-03-01T00:34:43;0.80;99.90
18229;DHT22;9239;50.932;3.142;2023-03-01T00:37:19;0.80;99.90
18229;DHT22;9239;50.932;3.142;2023-03-01T00:39:46;0.80;99.90
18229;DHT22;9239;50.932;3.142;2023-03-01T00:42:15;0.70;99.90
18229;DHT22;9239;50.932;3.142;2023-03-01T00:44:42;0.80;99.90
18229;DHT22;9239;50.932;3.142;2023-03-01T00:47:09;0.80;99.90
18229;DHT22;9239;50.932;3.142;2023-03-01T00:49:36;0.80;99.90
18229;DHT22;9239;50.932;3.142;2023-03-01T00:52:03;0.90;99.90
18229;DHT22;9239;50.932;3.142;2023-03-01T00:54:30;0.90;99.90
18229;DHT22;9239;50.932;3.142;2023-03-01T00:56:57;0.80;99.90
18229;DHT22;9239;50.932;3.142;2023-03-01T00:59:25;0.80;99.90
18229;DHT22;9239;50.932;3.142;2023-03-01T01:01:52;0.80;99.90
18229;DHT22;9239;50.932;3.142;2023-03-01T01:04:19;0.80;99.90
18229;DHT22;9239;50.932;3.142;2023-03-01T01:06:46;0.80;99.90
18229;DHT22;9239;50.932;3.142;2023-03-01T01:09:15;0.80;99.90
18229;DHT22;9239;50.932;3.142;2023-03-01T01:11:44;0.80;99.90
18229;DHT22;9239;50.932;3.142;2023-03-01T01:14:11;0.90;99.90
18229;DHT22;9239;50.932;3.142;2023-03-01T01:16:39;0.90;99.90
18229;DHT22;9239;50.932;3.142;2023-03-01T01:19:07;0.90;99.90
18229;DHT22;9239;50.932;3.142;2023-03-01T01:21:33;0.90;99.90
18229;DHT22;9239;50.932;3.142;2023-03-01T01:24:03;0.90;99.90
18229;DHT22;9239;50.932;3.142;2023-03-01T01:26:33;0.80;99.90
18229;DHT22;9239;50.932;3.142;2023-03-01T01:29:01;0.70;99.90
18229;DHT22;9239;50.932;3.142;2023-03-01T01:31:29;0.60;99.90
18229;DHT22;9239;50.932;3.142;2023-03-01T01:33:58;0.60;99.90
18229;DHT22;9239;50.932;3.142;2023-03-01T01:36:25;0.60;99.90
18229;DHT22;9239;50.932;3.142;2023-03-01T01:38:52;0.60;99.90
18229;DHT22;9239;50.932;3.142;2023-03-01T01:41:21;0.60;99.90
18229;DHT22;9239;50.932;3.142;2023-03-01T01:43:50;0.60;99.90
18229;DHT22;9239;50.932;3.142;2023-03-01T01:46:37;0.60;99.90
18229;DHT22;9239;50.932;3.142;2023-03-01T01:49:14;0.60;99.90
18229;DHT22;9239;50.932;3.142;2023-03-01T01:51:44;0.60;99.90
18229;DHT22;9239;50.932;3.142;2023-03-01T01:54:18;0.70;99.90
18229;DHT22;9239;50.932;3.142;2023-03-01T01:57:01;0.80;99.90
18229;DHT22;9239;50.932;3.142;2023-03-01T01:59:30;0.70;99.90
18229;DHT22;9239;50.932;3.142;2023-03-01T02:01:59;0.70;99.90
18229;DHT22;9239;50.932;3.142;2023-03-01T02:04:30;0.60;99.90
18229;DHT22;9239;50.932;3.142;2023-03-01T02:07:02;0.60;99.90
18229;DHT22;9239;50.932;3.142;2023-03-01T02:09:30;0.60;99.90
18229;DHT22;9239;50.932;3.142;2023-03-01T02:11:58;0.70;99.90
18229;DHT22;9239;50.932;3.142;2023-03-01T02:14:25;0.70;99.90
18229;DHT22;9239;50.932;3.142;2023-03-01T02:16:52;0.80;99.90
18229;DHT22;9239;50.932;3.142;2023-03-01T02:19:30;0.70;99.90
18229;DHT22;9239;50.932;3.142;2023-03-01T02:22:05;0.80;99.90
18229;DHT22;9239;50.932;3.142;2023-03-01T02:24:40;0.80;99.90
18229;DHT22;9239;50.932;3.142;2023-03-01T02:27:13;0.70;99.90
18229;DHT22;9239;50.932;3.142;2023-03-01T02:29:43;0.70;99.90
18229;DHT22;9239;50.932;3.142;2023-03-01T02:32:12;0.70;99.90
18229;DHT22;9239;50.932;3.142;2023-03-01T02:34:39;0.60;99.90
18229;DHT22;9239;50.932;3.142;2023-03-01T02:37:09;0.50;99.90
18229;DHT22;9239;50.932;3.142;2023-03-01T02:39:41;0.50;99.90
18229;DHT22;9239;50.932;3.142;2023-03-01T02:42:14;0.50;99.90
18229;DHT22;9239;50.932;3.142;2023-03-01T02:44:43;0.40;99.90
18229;DHT22;9239;50.932;3.142;2023-03-01T02:47:10;0.40;99.90
18229;DHT22;9239;50.932;3.142;2023-03-01T02:49:37;0.50;99.90
18229;DHT22;9239;50.932;3.142;2023-03-01T02:52:24;0.50;99.90
18229;DHT22;9239;50.932;3.142;2023-03-01T02:54:58;0.40;99.90
18229;DHT22;9239;50.932;3.142;2023-03-01T02:57:27;0.40;99.90
18229;DHT22;9239;50.932;3.142;2023-03-01T02:59:56;0.50;99.90
18229;DHT22;9239;50.932;3.142;2023-03-01T03:02:25;0.40;99.90
18229;DHT22;9239;50.932;3.142;2023-03-01T03:05:04;0.40;99.90
18229;DHT22;9239;50.932;3.142;2023-03-01T03:07:34;0.40;99.90
18229;DHT22;9239;50.932;3.142;2023-03-01T03:10:01;0.50;99.90
18229;DHT22;9239;50.932;3.142;2023-03-01T03:12:28;0.50;99.90
18229;DHT22;9239;50.932;3.142;2023-03-01T03:14:56;0.50;99.90
18229;DHT22;9239;50.932;3.142;2023-03-01T03:17:23;0.40;99.90
18229;DHT22;9239;50.932;3.142;2023-03-01T03:19:50;0.40;99.90
18229;DHT22;9239;50.932;3.142;2023-03-01T03:22:17;0.40;99.90
18229;DHT22;9239;50.932;3.142;2023-03-01T03:24:43;0.40;99.90
18229;DHT22;9239;50.932;3.142;2023-03-01T03:27:10;0.40;99.90
18229;DHT22;9239;50.932;3.142;2023-03-01T03:29:37;0.40;99.90
18229;DHT22;9239;50.932;3.142;2023-03-01T03:32:05;0.40;99.90
18229;DHT22;9239;50.932;3.142;2023-03-01T03:34:32;0.40;99.90
18229;DHT22;9239;50.932;3.142;2023-03-01T03:36:59;0.40;99.90
18229;DHT22;9239;50.932;3.142;2023-03-01T03:39:27;0.40;99.90
18229;DHT22;9239;50.932;3.142;2023-03-01T03:41:54;0.30;99.90
18229;DHT22;9239;50.932;3.142;2023-03-01T03:44:21;0.40;99.90
18229;DHT22;9239;50.932;3.142;2023-03-01T03:46:48;0.40;99.90
18229;DHT22;9239;50.932;3.142;2023-03-01T03:49:16;0.30;99.90
18229;DHT22;9239;50.932;3.142;2023-03-01T03:51:45;0.30;99.90
18229;DHT22;9239;50.932;3.142;2023-03-01T03:54:12;0.30;99.90
18229;DHT22;9239;50.932;3.142;2023-03-01T03:56:39;0.30;99.90
18229;DHT22;9239;50.932;3.142;2023-03-01T03:59:05;0.30;99.90
18229;DHT22;9239;50.932;3.142;2023-03-01T04:01:32;0.20;99.90
18229;DHT22;9239;50.932;3.142;2023-03-01T04:03:59;0.20;99.90
18229;DHT22;9239;50.932;3.142;2023-03-01T04:06:31;0.20;99.90
18229;DHT22;9239;50.932;3.142;2023-03-01T04:08:58;0.30;99.90
18229;DHT22;9239;50.932;3.142;2023-03-01T04:11:28;0.30;99.90
18229;DHT22;9239;50.932;3.142;2023-03-01T04:13:57;0.20;99.90
18229;DHT22;9239;50.932;3.142;2023-03-01T04:16:24;0.20;99.90
18229;DHT22;9239;50.932;3.142;2023-03-01T04:18:51;0.10;99.90
18229;DHT22;9239;50.932;3.142;2023-03-01T04:21:19;0.10;99.90
18229;DHT22;9239;50.932;3.142;2023-03-01T04:23:47;0.00;99.90
18229;DHT22;9239;50.932;3.142;2023-03-01T04:26:18;0.00;99.90
18229;DHT22;9239;50.932;3.142;2023-03-01T04:28:46;0.10;99.90
18229;DHT22;9239;50.932;3.142;2023-03-01T04:31:19;0.10;99.90
18229;DHT22;9239;50.932;3.142;2023-03-01T04:33:48;0.10;99.90
18229;DHT22;9239;50.932;3.142;2023-03-01T04:36:18;0.10;99.90
18229;DHT22;9239;50.932;3.142;2023-03-01T04:38:47;0.20;99.90
18229;DHT22;9239;50.932;3.142;2023-03-01T04:41:15;0.20;99.90
18229;DHT22;9239;50.932;3.142;2023-03-01T04:43:42;0.10;99.90
18229;DHT22;9239;50.932;3.142;2023-03-01T04:46:11;0.00;99.90
18229;DHT22;9239;50.932;3.142;2023-03-01T04:48:39;0.00;99.90
18229;DHT22;9239;50.932;3.142;2023-03-01T04:51:07;-0.10;99.90
18229;DHT22;9239;50.932;3.142;2023-03-01T04:53:34;-0.10;99.90
18229;DHT22;9239;50.932;3.142;2023-03-01T04:56:05;-0.10;99.90
18229;DHT22;9239;50.932;3.142;2023-03-01T04:58:32;-0.10;99.90
18229;DHT22;9239;50.932;3.142;2023-03-01T05:00:59;0.00;99.90
18229;DHT22;9239;50.932;3.142;2023-03-01T05:03:25;0.10;99.90
18229;DHT22;9239;50.932;3.142;2023-03-01T05:05:53;0.10;99.90
18229;DHT22;9239;50.932;3.142;2023-03-01T05:08:20;0.10;99.90
18229;DHT22;9239;50.932;3.142;2023-03-01T05:10:49;0.00;99.90
18229;DHT22;9239;50.932;3.142;2023-03-01T05:13:18;0.00;99.90
18229;DHT22;9239;50.932;3.142;2023-03-01T05:15:47;0.00;99.90
18229;DHT22;9239;50.932;3.142;2023-03-01T05:18:15;-0.10;99.90
18229;DHT22;9239;50.932;3.142;2023-03-01T05:20:42;-0.10;99.90
18229;DHT22;9239;50.932;3.142;2023-03-01T05:23:10;-0.10;99.90
18229;DHT22;9239;50.932;3.142;2023-03-01T05:25:37;-0.10;99.90
18229;DHT22;9239;50.932;3.142;2023-03-01T05:28:07;-0.10;99.90
18229;DHT22;9239;50.932;3.142;2023-03-01T05:30:38;-0.20;99.90
18229;DHT22;9239;50.932;3.142;2023-03-01T05:33:05;-0.10;99.90
18229;DHT22;9239;50.932;3.142;2023-03-01T05:35:39;-0.10;99.90
18229;DHT22;9239;50.932;3.142;2023-03-01T05:38:07;-0.10;99.90
18229;DHT22;9239;50.932;3.142;2023-03-01T05:40:35;-0.10;99.90
18229;DHT22;9239;50.932;3.142;2023-03-01T05:43:02;-0.10;99.90
18229;DHT22;9239;50.932;3.142;2023-03-01T05:45:31;-0.10;99.90
18229;DHT22;9239;50.932;3.142;2023-03-01T05:48:00;-0.10;99.90
18229;DHT22;9239;50.932;3.142;2023-03-01T05:50:28;0.00;99.90
18229;DHT22;9239;50.932;3.142;2023-03-01T05:52:58;0.00;99.90
18229;DHT22;9239;50.932;3.142;2023-03-01T05:55:26;0.10;99.90
18229;DHT22;9239;50.932;3.142;2023-03-01T05:57:53;0.10;99.90
18229;DHT22;9239;50.932;3.142;2023-03-01T06:00:21;0.00;99.90
18229;DHT22;9239;50.932;3.142;2023-03-01T06:02:50;0.00;99.90
18229;DHT22;9239;50.932;3.142;2023-03-01T06:05:20;-0.10;99.90
18229;DHT22;9239;50.932;3.142;2023-03-01T06:07:47;-0.10;99.90
18229;DHT22;9239;50.932;3.142;2023-03-01T06:10:16;-0.10;99.90
18229;DHT22;9239;50.932;3.142;2023-03-01T06:12:44;-0.10;99.90
18229;DHT22;9239;50.932;3.142;2023-03-01T06:15:11;-0.10;99.90
18229;DHT22;9239;50.932;3.142;2023-03-01T06:17:40;-0.10;99.90
18229;DHT22;9239;50.932;3.142;2023-03-01T06:20:10;-0.20;99.90
18229;DHT22;9239;50.932;3.142;2023-03-01T06:22:38;-0.20;99.90
18229;DHT22;9239;50.932;3.142;2023-03-01T06:25:06;-0.30;99.90
18229;DHT22;9239;50.932;3.142;2023-03-01T06:27:33;-0.30;99.90
18229;DHT22;9239;50.932;3.142;2023-03-01T06:30:00;-0.20;99.90
18229;DHT22;9239;50.932;3.142;2023-03-01T06:32:28;-0.20;99.90
18229;DHT22;9239;50.932;3.142;2023-03-01T06:34:56;-0.30;99.90
18229;DHT22;9239;50.932;3.142;2023-03-01T06:37:26;-0.30;99.90
18229;DHT22;9239;50.932;3.142;2023-03-01T06:39:55;-0.20;99.90
18229;DHT22;9239;50.932;3.142;2023-03-01T06:42:21;-0.30;99.90
18229;DHT22;9239;50.932;3.142;2023-03-01T06:44:48;-0.30;99.90
18229;DHT22;9239;50.932;3.142;2023-03-01T06:47:15;-0.30;99.90
18229;DHT22;9239;50.932;3.142;2023-03-01T06:49:42;-0.30;99.90
18229;DHT22;9239;50.932;3.142;2023-03-01T06:52:09;-0.30;99.90
18229;DHT22;9239;50.932;3.142;2023-03-01T06:54:36;-0.30;99.90
18229;DHT22;9239;50.932;3.142;2023-03-01T06:57:04;-0.30;99.90
18229;DHT22;9239;50.932;3.142;2023-03-01T06:59:31;-0.20;99.90
18229;DHT22;9239;50.932;3.142;2023-03-01T07:01:58;-0.10;99.90
18229;DHT22;9239;50.932;3.142;2023-03-01T07:04:24;-0.10;99.90
18229;DHT22;9239;50.932;3.142;2023-03-01T07:06:54;-0.10;99.90
18229;DHT22;9239;50.932;3.142;2023-03-01T07:09:21;0.00;99.90
18229;DHT22;9239;50.932;3.142;2023-03-01T07:11:48;0.10;99.90
18229;DHT22;9239;50.932;3.142;2023-03-01T07:14:16;0.10;99.90
18229;DHT22;9239;50.932;3.142;2023-03-01T07:16:45;0.20;99.90
18229;DHT22;9239;50.932;3.142;2023-03-01T07:19:12;0.20;99.90
18229;DHT22;9239;50.932;3.142;2023-03-01T07:21:38;0.40;99.90
18229;DHT22;9239;50.932;3.142;2023-03-01T07:24:06;0.40;99.90
18229;DHT22;9239;50.932;3.142;2023-03-01T07:26:33;0.50;99.90
18229;DHT22;9239;50.932;3.142;2023-03-01T07:29:00;0.60;99.90
18229;DHT22;9239;50.932;3.142;2023-03-01T07:31:29;0.70;99.90
18229;DHT22;9239;50.932;3.142;2023-03-01T07:33:56;0.80;99.90
18229;DHT22;9239;50.932;3.142;2023-03-01T07:36:23;0.80;99.90
18229;DHT22;9239;50.932;3.142;2023-03-01T07:38:51;0.90;99.90
18229;DHT22;9239;50.932;3.142;2023-03-01T07:41:18;0.90;99.90
18229;DHT22;9239;50.932;3.142;2023-03-01T07:43:45;1.00;99.90
18229;DHT22;9239;50.932;3.142;2023-03-01T07:46:12;1.00;99.90
18229;DHT22;9239;50.932;3.142;2023-03-01T07:48:40;1.10;99.90
18229;DHT22;9239;50.932;3.142;2023-03-01T07:51:07;1.20;99.90
18229;DHT22;9239;50.932;3.142;2023-03-01T07:53:34;1.30;99.90
18229;DHT22;9239;50.932;3.142;2023-03-01T07:56:03;1.40;99.90
18229;DHT22;9239;50.932;3.142;2023-03-01T07:58:31;1.50;99.90
18229;DHT22;9239;50.932;3.142;2023-03-01T08:01:01;1.60;99.90
18229;DHT22;9239;50.932;3.142;2023-03-01T08:03:28;1.60;99.90
18229;DHT22;9239;50.932;3.142;2023-03-01T08:05:59;1.70;99.90
18229;DHT22;9239;50.932;3.142;2023-03-01T08:08:26;1.80;99.90
18229;DHT22;9239;50.932;3.142;2023-03-01T08:10:56;1.90;99.90
18229;DHT22;9239;50.932;3.142;2023-03-01T08:13:23;2.00;99.90
18229;DHT22;9239;50.932;3.142;2023-03-01T08:15:50;2.00;99.90
18229;DHT22;9239;50.932;3.142;2023-03-01T08:18:17;2.10;99.90
18229;DHT22;9239;50.932;3.142;2023-03-01T08:20:44;2.20;99.90
18229;DHT22;9239;50.932;3.142;2023-03-01T08:23:12;2.30;99.90
18229;DHT22;9239;50.932;3.142;2023-03-01T08:25:39;2.40;99.90
18229;DHT22;9239;50.932;3.142;2023-03-01T08:28:06;2.50;99.90
18229;DHT22;9239;50.932;3.142;2023-03-01T08:30:34;2.60;99.90
18229;DHT22;9239;50.932;3.142;2023-03-01T08:33:01;2.70;99.90
18229;DHT22;9239;50.932;3.142;2023-03-01T08:35:28;2.80;99.90
18229;DHT22;9239;50.932;3.142;2023-03-01T08:37:54;2.70;99.90
18229;DHT22;9239;50.932;3.142;2023-03-01T08:40:23;2.80;99.90
18229;DHT22;9239;50.932;3.142;2023-03-01T08:42:50;2.90;99.90
18229;DHT22;9239;50.932;3.142;2023-03-01T08:45:17;3.00;99.90
18229;DHT22;9239;50.932;3.142;2023-03-01T08:47:44;3.10;99.90
18229;DHT22;9239;50.932;3.142;2023-03-01T08:50:11;3.20;99.90
18229;DHT22;9239;50.932;3.142;2023-03-01T08:52:38;3.20;99.90
18229;DHT22;9239;50.932;3.142;2023-03-01T08:55:06;3.30;99.90
18229;DHT22;9239;50.932;3.142;2023-03-01T08:57:35;3.40;99.90
18229;DHT22;9239;50.932;3.142;2023-03-01T09:00:03;3.50;99.90
18229;DHT22;9239;50.932;3.142;2023-03-01T09:02:34;3.60;99.90
18229;DHT22;9239;50.932;3.142;2023-03-01T09:05:00;3.60;99.90
18229;DHT22;9239;50.932;3.142;2023-03-01T09:07:27;3.70;99.90
18229;DHT22;9239;50.932;3.142;2023-03-01T09:09:54;3.70;99.90
18229;DHT22;9239;50.932;3.142;2023-03-01T09:12:21;3.70;99.90
18229;DHT22;9239;50.932;3.142;2023-03-01T09:14:51;3.80;99.90
18229;DHT22;9239;50.932;3.142;2023-03-01T09:17:18;3.80;99.90
18229;DHT22;9239;50.932;3.142;2023-03-01T09:19:47;3.80;99.90
18229;DHT22;9239;50.932;3.142;2023-03-01T09:22:13;3.90;99.90
18229;DHT22;9239;50.932;3.142;2023-03-01T09:24:40;3.90;99.90
18229;DHT22;9239;50.932;3.142;2023-03-01T09:27:07;4.00;99.90
18229;DHT22;9239;50.932;3.142;2023-03-01T09:29:34;4.10;99.90
18229;DHT22;9239;50.932;3.142;2023-03-01T09:32:03;4.10;99.90
18229;DHT22;9239;50.932;3.142;2023-03-01T09:34:29;4.10;99.90
18229;DHT22;9239;50.932;3.142;2023-03-01T09:36:57;4.20;99.90
18229;DHT22;9239;50.932;3.142;2023-03-01T09:39:25;4.20;99.90
18229;DHT22;9239;50.932;3.142;2023-03-01T09:41:58;4.20;99.90
18229;DHT22;9239;50.932;3.142;2023-03-01T09:44:35;4.20;99.90
18229;DHT22;9239;50.932;3.142;2023-03-01T09:47:05;4.20;99.90
18229;DHT22;9239;50.932;3.142;2023-03-01T09:49:40;4.30;99.90
18229;DHT22;9239;50.932;3.142;2023-03-01T09:52:17;4.40;99.90
18229;DHT22;9239;50.932;3.142;2023-03-01T09:54:46;4.50;99.90
18229;DHT22;9239;50.932;3.142;2023-03-01T09:57:18;4.60;99.90
18229;DHT22;9239;50.932;3.142;2023-03-01T10:00:00;4.80;99.90
18229;DHT22;9239;50.932;3.142;2023-03-01T10:02:38;4.70;99.90
18229;DHT22;9239;50.932;3.142;2023-03-01T10:05:15;4.80;99.90
18229;DHT22;9239;50.932;3.142;2023-03-01T10:07:52;4.90;99.90
18229;DHT22;9239;50.932;3.142;2023-03-01T10:10:27;4.90;99.90
18229;DHT22;9239;50.932;3.142;2023-03-01T10:12:56;5.00;99.90
18229;DHT22;9239;50.932;3.142;2023-03-01T10:15:30;4.90;99.90
18229;DHT22;9239;50.932;3.142;2023-03-01T10:18:03;5.00;99.90
18229;DHT22;9239;50.932;3.142;2023-03-01T10:20:42;5.10;99.90
18229;DHT22;9239;50.932;3.142;2023-03-01T10:23:10;5.10;99.90
18229;DHT22;9239;50.932;3.142;2023-03-01T10:25:47;5.20;99.90
18229;DHT22;9239;50.932;3.142;2023-03-01T10:28:25;5.20;99.90
18229;DHT22;9239;50.932;3.142;2023-03-01T10:30:53;5.30;99.90
18229;DHT22;9239;50.932;3.142;2023-03-01T10:33:24;5.30;99.90
18229;DHT22;9239;50.932;3.142;2023-03-01T10:35:52;5.50;99.90
18229;DHT22;9239;50.932;3.142;2023-03-01T10:38:20;5.60;99.90
18229;DHT22;9239;50.932;3.142;2023-03-01T10:40:52;5.60;99.90
18229;DHT22;9239;50.932;3.142;2023-03-01T10:43:20;5.60;99.90
18229;DHT22;9239;50.932;3.142;2023-03-01T10:45:48;5.60;99.90
18229;DHT22;9239;50.932;3.142;2023-03-01T10:48:16;5.60;99.90
18229;DHT22;9239;50.932;3.142;2023-03-01T10:50:47;5.70;99.90
18229;DHT22;9239;50.932;3.142;2023-03-01T10:53:26;5.80;99.90
18229;DHT22;9239;50.932;3.142;2023-03-01T10:56:00;6.00;99.90
18229;DHT22;9239;50.932;3.142;2023-03-01T10:58:28;6.00;99.90
18229;DHT22;9239;50.932;3.142;2023-03-01T11:00:57;6.00;99.90
18229;DHT22;9239;50.932;3.142;2023-03-01T11:03:26;6.00;99.90
18229;DHT22;9239;50.932;3.142;2023-03-01T11:06:01;5.90;99.90
18229;DHT22;9239;50.932;3.142;2023-03-01T11:08:40;6.00;99.90
18229;DHT22;9239;50.932;3.142;2023-03-01T11:11:21;6.00;99.90
18229;DHT22;9239;50.932;3.142;2023-03-01T11:14:00;6.00;99.90
18229;DHT22;9239;50.932;3.142;2023-03-01T11:16:33;6.10;99.90
18229;DHT22;9239;50.932;3.142;2023-03-01T11:19:15;6.20;99.90
18229;DHT22;9239;50.932;3.142;2023-03-01T11:21:51;6.30;99.90
18229;DHT22;9239;50.932;3.142;2023-03-01T11:24:19;6.40;99.90
18229;DHT22;9239;50.932;3.142;2023-03-01T11:26:53;6.50;99.90
18229;DHT22;9239;50.932;3.142;2023-03-01T11:29:27;6.50;99.90
18229;DHT22;9239;50.932;3.142;2023-03-01T11:31:59;6.60;99.90
18229;DHT22;9239;50.932;3.142;2023-03-01T11:34:41;6.50;99.90
18229;DHT22;9239;50.932;3.142;2023-03-01T11:37:22;6.40;99.90
18229;DHT22;9239;50.932;3.142;2023-03-01T11:39:57;6.40;99.90
18229;DHT22;9239;50.932;3.142;2023-03-01T11:42:30;6.40;99.90
18229;DHT22;9239;50.932;3.142;2023-03-01T11:45:08;6.50;99.90
18229;DHT22;9239;50.932;3.142;2023-03-01T11:47:45;6.60;99.90
18229;DHT22;9239;50.932;3.142;2023-03-01T11:50:24;6.70;99.90
18229;DHT22;9239;50.932;3.142;2023-03-01T11:53:00;6.80;99.90
18229;DHT22;9239;50.932;3.142;2023-03-01T11:55:42;7.00;99.90
18229;DHT22;9239;50.932;3.142;2023-03-01T11:58:23;7.00;99.90
18229;DHT22;9239;50.932;3.142;2023-03-01T12:01:02;6.80;99.90
18229;DHT22;9239;50.932;3.142;2023-03-01T12:03:53;6.70;99.90
18229;DHT22;9239;50.932;3.142;2023-03-01T12:06:29;6.80;99.90
18229;DHT22;9239;50.932;3.142;2023-03-01T12:09:12;6.80;99.90
18229;DHT22;9239;50.932;3.142;2023-03-01T12:11:59;6.80;99.90
18229;DHT22;9239;50.932;3.142;2023-03-01T12:20:29;6.80;99.90
18229;DHT22;9239;50.932;3.142;2023-03-01T12:23:26;6.90;99.90
18229;DHT22;9239;50.932;3.142;2023-03-01T12:26:05;6.80;99.90
18229;DHT22;9239;50.932;3.142;2023-03-01T12:28:51;6.80;99.90
18229;DHT22;9239;50.932;3.142;2023-03-01T12:31:52;6.90;99.90
18229;DHT22;9239;50.932;3.142;2023-03-01T12:34:40;6.90;99.90
18229;DHT22;9239;50.932;3.142;2023-03-01T12:37:21;6.90;99.90
18229;DHT22;9239;50.932;3.142;2023-03-01T12:40:01;6.90;99.90
18229;DHT22;9239;50.932;3.142;2023-03-01T12:42:37;7.00;99.90
18229;DHT22;9239;50.932;3.142;2023-03-01T12:45:23;6.90;99.90
18229;DHT22;9239;50.932;3.142;2023-03-01T12:48:02;7.00;99.90
18229;DHT22;9239;50.932;3.142;2023-03-01T12:50:38;7.20;99.90
18229;DHT22;9239;50.932;3.142;2023-03-01T12:53:17;7.30;99.90
18229;DHT22;9239;50.932;3.142;2023-03-01T12:55:47;7.40;99.90
18229;DHT22;9239;50.932;3.142;2023-03-01T12:58:24;7.40;99.90
18229;DHT22;9239;50.932;3.142;2023-03-01T13:01:07;7.30;99.90
18229;DHT22;9239;50.932;3.142;2023-03-01T13:03:55;7.10;99.90
18229;DHT22;9239;50.932;3.142;2023-03-01T13:06:27;7.10;99.90
18229;DHT22;9239;50.932;3.142;2023-03-01T13:09:00;7.20;99.90
18229;DHT22;9239;50.932;3.142;2023-03-01T13:11:28;7.30;99.90
18229;DHT22;9239;50.932;3.142;2023-03-01T13:16:57;7.20;99.90
18229;DHT22;9239;50.932;3.142;2023-03-01T13:19:25;7.20;99.90
18229;DHT22;9239;50.932;3.142;2023-03-01T13:21:55;7.20;99.90
18229;DHT22;9239;50.932;3.142;2023-03-01T13:24:26;7.20;99.90
18229;DHT22;9239;50.932;3.142;2023-03-01T13:27:21;7.30;99.90
18229;DHT22;9239;50.932;3.142;2023-03-01T13:29:52;7.30;99.90
18229;DHT22;9239;50.932;3.142;2023-03-01T13:32:22;7.50;99.90
18229;DHT22;9239;50.932;3.142;2023-03-01T13:34:55;7.30;99.90
18229;DHT22;9239;50.932;3.142;2023-03-01T13:37:33;7.40;99.90
18229;DHT22;9239;50.932;3.142;2023-03-01T13:40:05;7.40;99.90
18229;DHT22;9239;50.932;3.142;2023-03-01T13:42:41;7.20;99.90
18229;DHT22;9239;50.932;3.142;2023-03-01T13:45:18;7.20;99.90
18229;DHT22;9239;50.932;3.142;2023-03-01T13:47:50;7.30;99.90
18229;DHT22;9239;50.932;3.142;2023-03-01T13:50:21;7.30;99.90
18229;DHT22;9239;50.932;3.142;2023-03-01T13:52:53;7.30;99.90
18229;DHT22;9239;50.932;3.142;2023-03-01T13:55:26;7.10;99.90
18229;DHT22;9239;50.932;3.142;2023-03-01T13:57:56;7.20;99.90
18229;DHT22;9239;50.932;3.142;2023-03-01T14:00:33;7.40;99.90
18229;DHT22;9239;50.932;3.142;2023-03-01T14:03:04;7.50;99.90
18229;DHT22;9239;50.932;3.142;2023-03-01T14:05:32;7.60;99.90
18229;DHT22;9239;50.932;3.142;2023-03-01T14:07:58;7.60;99.90
18229;DHT22;9239;50.932;3.142;2023-03-01T14:10:35;7.60;99.90
18229;DHT22;9239;50.932;3.142;2023-03-01T14:13:10;7.50;99.90
18229;DHT22;9239;50.932;3.142;2023-03-01T14:15:49;7.50;99.90
18229;DHT22;9239;50.932;3.142;2023-03-01T14:18:22;7.50;99.90
18229;DHT22;9239;50.932;3.142;2023-03-01T14:20:51;7.60;99.90
18229;DHT22;9239;50.932;3.142;2023-03-01T14:23:20;7.70;99.90
18229;DHT22;9239;50.932;3.142;2023-03-01T14:25:48;7.70;99.90
18229;DHT22;9239;50.932;3.142;2023-03-01T14:28:18;7.50;99.90
18229;DHT22;9239;50.932;3.142;2023-03-01T14:30:47;7.50;99.90
18229;DHT22;9239;50.932;3.142;2023-03-01T14:33:22;7.50;99.90
18229;DHT22;9239;50.932;3.142;2023-03-01T14:35:57;7.50;99.90
18229;DHT22;9239;50.932;3.142;2023-03-01T14:38:30;7.40;99.90
18229;DHT22;9239;50.932;3.142;2023-03-01T14:41:00;7.40;99.90
18229;DHT22;9239;50.932;3.142;2023-03-01T14:43:29;7.50;99.90
18229;DHT22;9239;50.932;3.142;2023-03-01T14:45:57;7.60;99.90
18229;DHT22;9239;50.932;3.142;2023-03-01T14:48:27;7.50;99.90
18229;DHT22;9239;50.932;3.142;2023-03-01T14:50:54;7.50;99.90
18229;DHT22;9239;50.932;3.142;2023-03-01T14:53:24;7.40;99.90
18229;DHT22;9239;50.932;3.142;2023-03-01T14:55:54;7.50;99.90
18229;DHT22;9239;50.932;3.142;2023-03-01T14:58:22;7.50;99.90
18229;DHT22;9239;50.932;3.142;2023-03-01T15:00:52;7.50;99.90
18229;DHT22;9239;50.932;3.142;2023-03-01T15:03:26;7.40;99.90
18229;DHT22;9239;50.932;3.142;2023-03-01T15:05:54;7.40;99.90
18229;DHT22;9239;50.932;3.142;2023-03-01T15:08:23;7.50;99.90
18229;DHT22;9239;50.932;3.142;2023-03-01T15:11:00;7.40;99.90
18229;DHT22;9239;50.932;3.142;2023-03-01T15:13:30;7.30;99.90
18229;DHT22;9239;50.932;3.142;2023-03-01T15:16:04;7.30;99.90
18229;DHT22;9239;50.932;3.142;2023-03-01T15:18:34;7.30;99.90
18229;DHT22;9239;50.932;3.142;2023-03-01T15:21:13;7.30;99.90
18229;DHT22;9239;50.932;3.142;2023-03-01T15:23:41;7.30;99.90
18229;DHT22;9239;50.932;3.142;2023-03-01T15:26:22;7.40;99.90
18229;DHT22;9239;50.932;3.142;2023-03-01T15:28:52;7.40;99.90
18229;DHT22;9239;50.932;3.142;2023-03-01T15:31:22;7.40;99.90
18229;DHT22;9239;50.932;3.142;2023-03-01T15:33:51;7.40;99.90
18229;DHT22;9239;50.932;3.142;2023-03-01T15:36:31;7.40;99.90
18229;DHT22;9239;50.932;3.142;2023-03-01T15:39:00;7.50;99.90
18229;DHT22;9239;50.932;3.142;2023-03-01T15:41:29;7.40;99.90
18229;DHT22;9239;50.932;3.142;2023-03-01T15:43:58;7.50;99.90
18229;DHT22;9239;50.932;3.142;2023-03-01T15:46:28;7.40;99.90
18229;DHT22;9239;50.932;3.142;2023-03-01T15:48:58;7.40;99.90
18229;DHT22;9239;50.932;3.142;2023-03-01T15:51:32;7.30;99.90
18229;DHT22;9239;50.932;3.142;2023-03-01T15:54:05;7.30;99.90
18229;DHT22;9239;50.932;3.142;2023-03-01T15:56:33;7.30;99.90
18229;DHT22;9239;50.932;3.142;2023-03-01T15:59:02;7.30;99.90
18229;DHT22;9239;50.932;3.142;2023-03-01T16:01:29;7.20;99.90
18229;DHT22;9239;50.932;3.142;2023-03-01T16:03:57;7.10;99.90
18229;DHT22;9239;50.932;3.142;2023-03-01T16:06:24;7.20;99.90
18229;DHT22;9239;50.932;3.142;2023-03-01T16:08:52;7.10;99.90
18229;DHT22;9239;50.932;3.142;2023-03-01T16:11:20;7.10;99.90
18229;DHT22;9239;50.932;3.142;2023-03-01T16:13:47;7.00;99.90
18229;DHT22;9239;50.932;3.142;2023-03-01T16:16:15;7.00;99.90
18229;DHT22;9239;50.932;3.142;2023-03-01T16:18:44;7.00;99.90
18229;DHT22;9239;50.932;3.142;2023-03-01T16:21:20;7.00;99.90
18229;DHT22;9239;50.932;3.142;2023-03-01T16:23:47;6.80;99.90
18229;DHT22;9239;50.932;3.142;2023-03-01T16:26:14;6.80;99.90
18229;DHT22;9239;50.932;3.142;2023-03-01T16:28:41;6.70;99.90